createdAt,value
2018-09-15T00:02:25.176Z,70.11
2018-09-15T00:04:53.686Z,70.59
2018-09-15T00:07:22.333Z,71.13
2018-09-15T00:09:50.808Z,72.03
2018-09-15T00:14:46.820Z,71.72
2018-09-15T00:17:15.339Z,72.04
2018-09-15T00:19:44.648Z,72.40
2018-09-15T00:22:13.153Z,72.12
2018-09-15T00:24:41.748Z,73.08
2018-09-15T00:27:10.249Z,72.70
2018-09-15T00:29:38.752Z,72.46
2018-09-15T00:32:07.316Z,72.02
2018-09-15T00:34:35.880Z,72.34
2018-09-15T00:37:04.392Z,71.63
2018-09-15T00:39:32.896Z,72.55
2018-09-15T00:42:01.368Z,71.17
2018-09-15T00:44:30.097Z,71.94
2018-09-15T00:46:58.595Z,72.42
2018-09-15T00:49:27.109Z,72.44
2018-09-15T00:51:55.605Z,72.86
2018-09-15T00:54:24.082Z,72.15
2018-09-15T00:56:52.621Z,72.14
2018-09-15T00:59:21.153Z,71.58
2018-09-15T01:01:49.655Z,71.99
2018-09-15T01:04:18.201Z,72.50
2018-09-15T01:06:46.821Z,72.86
2018-09-15T01:09:15.329Z,72.58
2018-09-15T01:11:43.807Z,72.19
2018-09-15T01:14:12.431Z,72.13
2018-09-15T01:16:40.875Z,72.56
2018-09-15T01:19:09.392Z,72.26
2018-09-15T01:21:37.945Z,73.11
2018-09-15T01:24:06.428Z,72.44
2018-09-15T01:26:34.936Z,73.10
2018-09-15T01:29:03.606Z,73.78
2018-09-15T01:31:32.858Z,73.90
2018-09-15T01:34:01.384Z,73.64
2018-09-15T01:36:29.850Z,73.14
2018-09-15T01:38:58.498Z,73.21
2018-09-15T01:41:26.979Z,74.27
2018-09-15T01:43:55.604Z,73.72
2018-09-15T01:46:24.131Z,74.30
2018-09-15T01:48:52.719Z,74.13
2018-09-15T01:51:21.241Z,75.71
2018-09-15T01:53:49.809Z,74.93
2018-09-15T01:56:18.306Z,74.87
2018-09-15T01:58:46.860Z,74.82
2018-09-15T02:01:15.408Z,76.01
2018-09-15T02:03:44.192Z,75.87
2018-09-15T02:06:12.724Z,75.98
2018-09-15T02:08:41.589Z,75.63
2018-09-15T02:11:10.061Z,76.49
2018-09-15T02:13:38.550Z,76.22
2018-09-15T02:16:07.072Z,75.36
2018-09-15T02:18:35.581Z,75.79
2018-09-15T02:21:04.070Z,75.29
2018-09-15T02:23:32.588Z,74.22
2018-09-15T02:26:01.056Z,75.31
2018-09-15T02:28:29.519Z,75.30
2018-09-15T02:30:58.133Z,74.69
2018-09-15T02:33:26.699Z,75.13
2018-09-15T02:35:55.255Z,75.57
2018-09-15T02:38:23.809Z,75.00
2018-09-15T02:40:52.320Z,74.96
2018-09-15T02:43:21.013Z,75.47
2018-09-15T02:45:49.618Z,75.26
2018-09-15T02:48:18.214Z,76.17
2018-09-15T02:50:46.769Z,75.38
2018-09-15T02:53:15.286Z,75.73
2018-09-15T02:55:43.792Z,75.70
2018-09-15T02:58:12.331Z,75.64
2018-09-15T03:00:40.796Z,75.65
2018-09-15T03:03:09.338Z,76.03
2018-09-15T03:05:37.857Z,76.16
2018-09-15T03:08:06.417Z,76.18
2018-09-15T03:10:34.942Z,75.64
2018-09-15T03:13:03.496Z,75.58
2018-09-15T03:15:32.253Z,75.16
2018-09-15T03:18:00.754Z,74.85
2018-09-15T03:20:29.544Z,75.89
2018-09-15T03:22:58.074Z,75.03
2018-09-15T03:25:26.559Z,75.46
2018-09-15T03:27:55.056Z,75.09
2018-09-15T03:30:23.536Z,75.25
2018-09-15T03:32:52.079Z,75.22
2018-09-15T03:35:21.841Z,74.42
2018-09-15T03:37:50.366Z,74.92
2018-09-15T03:40:18.909Z,76.29
2018-09-15T03:42:47.535Z,76.86
2018-09-15T03:45:16.236Z,75.71
2018-09-15T03:47:44.773Z,76.11
2018-09-15T03:50:13.293Z,75.36
2018-09-15T03:52:41.807Z,76.05
2018-09-15T03:55:10.289Z,76.01
2018-09-15T03:57:38.836Z,75.85
2018-09-15T04:00:07.420Z,76.19
2018-09-15T04:02:35.917Z,75.91
2018-09-15T04:05:04.421Z,75.83
2018-09-15T04:07:32.875Z,75.63
2018-09-15T04:10:01.401Z,76.02
2018-09-15T04:12:30.113Z,75.62
2018-09-15T04:14:58.645Z,76.04
2018-09-15T04:17:27.292Z,75.81
2018-09-15T04:19:56.079Z,75.91
2018-09-15T04:22:24.577Z,76.76
2018-09-15T04:24:53.187Z,76.51
2018-09-15T04:27:21.691Z,76.81
2018-09-15T04:29:51.207Z,76.19
2018-09-15T04:32:19.726Z,76.41
2018-09-15T04:34:48.237Z,76.76
2018-09-15T04:37:16.823Z,76.56
2018-09-15T04:39:45.411Z,77.02
2018-09-15T04:42:13.941Z,76.65
2018-09-15T04:44:42.415Z,77.12
2018-09-15T04:47:10.957Z,77.41
2018-09-15T04:49:39.568Z,79.02
2018-09-15T04:52:08.115Z,78.14
2018-09-15T04:54:36.611Z,78.82
2018-09-15T04:57:05.148Z,77.83
2018-09-15T04:59:33.707Z,78.59
2018-09-15T05:02:02.426Z,78.29
2018-09-15T05:04:30.925Z,78.56
2018-09-15T05:06:59.428Z,78.08
2018-09-15T05:09:29.506Z,77.92
2018-09-15T05:11:57.989Z,78.26
2018-09-15T05:14:26.538Z,78.54
2018-09-15T05:16:55.028Z,78.39
2018-09-15T05:19:23.556Z,77.97
2018-09-15T05:21:52.044Z,78.34
2018-09-15T05:24:20.704Z,77.41
2018-09-15T05:26:49.304Z,77.85
2018-09-15T05:29:17.841Z,78.20
2018-09-15T05:31:46.455Z,78.12
2018-09-15T05:34:15.021Z,78.28
2018-09-15T05:36:43.562Z,77.79
2018-09-15T05:39:13.514Z,78.09
2018-09-15T05:41:42.234Z,77.21
2018-09-15T05:44:10.880Z,77.18
2018-09-15T05:46:39.435Z,78.81
2018-09-15T05:49:07.968Z,77.54
2018-09-15T05:51:36.663Z,77.27
2018-09-15T05:54:05.178Z,77.56
2018-09-15T05:56:33.687Z,76.43
2018-09-15T05:59:02.218Z,76.65
2018-09-15T06:01:30.919Z,77.66
2018-09-15T06:03:59.433Z,77.05
2018-09-15T06:06:27.979Z,77.24
2018-09-15T06:08:56.512Z,76.77
2018-09-15T06:11:25.229Z,76.31
2018-09-15T06:13:53.800Z,77.76
2018-09-15T06:16:22.397Z,77.08
2018-09-15T06:18:50.997Z,75.99
2018-09-15T06:21:19.577Z,75.81
2018-09-15T06:23:48.101Z,75.47
2018-09-15T06:26:16.986Z,75.80
2018-09-15T06:28:45.540Z,75.98
2018-09-15T06:31:14.121Z,76.36
2018-09-15T06:33:42.587Z,76.32
2018-09-15T06:36:11.122Z,75.74
2018-09-15T06:38:39.600Z,75.01
2018-09-15T06:41:08.151Z,74.69
2018-09-15T06:43:36.780Z,76.05
2018-09-15T06:46:05.264Z,75.54
2018-09-15T06:48:33.952Z,75.08
2018-09-15T06:51:02.941Z,73.75
2018-09-15T06:53:31.716Z,74.19
2018-09-15T06:56:00.339Z,73.13
2018-09-15T06:58:30.048Z,74.79
2018-09-15T07:00:58.688Z,74.72
2018-09-15T07:03:27.171Z,75.30
2018-09-15T07:05:55.673Z,74.75
2018-09-15T07:08:24.473Z,74.06
2018-09-15T07:10:53.099Z,74.11
2018-09-15T07:13:21.919Z,74.91
2018-09-15T07:15:50.428Z,74.50
2018-09-15T07:18:18.947Z,74.41
2018-09-15T07:20:47.706Z,74.32
2018-09-15T07:23:16.240Z,73.66
2018-09-15T07:25:44.936Z,74.43
2018-09-15T07:28:13.542Z,74.13
2018-09-15T07:30:42.081Z,73.29
2018-09-15T07:33:10.692Z,73.01
2018-09-15T07:35:39.196Z,73.30
2018-09-15T07:38:07.735Z,73.99
2018-09-15T07:40:36.244Z,74.12
2018-09-15T07:43:04.748Z,73.65
2018-09-15T07:45:33.315Z,72.83
2018-09-15T07:48:02.174Z,75.75
2018-09-15T07:50:30.751Z,75.48
2018-09-15T07:52:59.334Z,75.19
2018-09-15T07:55:27.866Z,76.35
2018-09-15T07:57:56.483Z,76.50
2018-09-15T08:00:25.100Z,75.16
2018-09-15T08:02:53.617Z,74.24
2018-09-15T08:05:22.152Z,74.62
2018-09-15T08:07:50.652Z,74.33
2018-09-15T08:10:19.144Z,75.32
2018-09-15T08:12:47.857Z,75.36
2018-09-15T08:15:16.440Z,73.58
2018-09-15T08:17:45.141Z,75.07
2018-09-15T08:20:13.674Z,73.70
2018-09-15T08:22:42.202Z,72.98
2018-09-15T08:25:11.261Z,73.51
2018-09-15T08:27:39.808Z,72.06
2018-09-15T08:30:08.360Z,70.94
2018-09-15T08:32:36.959Z,73.61
2018-09-15T08:35:05.697Z,73.02
2018-09-15T08:37:34.213Z,72.40
2018-09-15T08:40:02.721Z,73.34
2018-09-15T08:42:31.607Z,74.41
2018-09-15T08:45:00.212Z,73.83
2018-09-15T08:47:29.610Z,74.70
2018-09-15T08:49:58.295Z,74.62
2018-09-15T08:52:27.183Z,73.47
2018-09-15T08:54:55.768Z,72.35
2018-09-15T08:57:24.284Z,73.72
2018-09-15T08:59:52.805Z,71.36
2018-09-15T09:02:21.362Z,71.92
2018-09-15T09:04:49.871Z,70.40
2018-09-15T09:07:18.427Z,70.07
2018-09-15T09:09:46.921Z,69.30
2018-09-15T09:12:15.435Z,69.84
2018-09-15T09:14:43.993Z,69.87
2018-09-15T09:17:12.540Z,67.98
2018-09-15T09:19:41.065Z,66.87
2018-09-15T09:22:09.605Z,67.93
2018-09-15T09:24:38.111Z,69.77
2018-09-15T09:27:06.607Z,67.17
2018-09-15T09:29:35.142Z,66.81
2018-09-15T09:32:04.048Z,68.88
2018-09-15T09:34:32.594Z,65.77
2018-09-15T09:37:01.472Z,64.42
2018-09-15T09:39:30.345Z,64.33
2018-09-15T09:41:58.864Z,64.48
2018-09-15T09:44:27.354Z,60.81
2018-09-15T09:46:56.198Z,60.43
2018-09-15T09:49:24.820Z,64.33
2018-09-15T09:51:53.369Z,65.09
2018-09-15T09:54:22.176Z,66.56
2018-09-15T09:56:50.765Z,67.36
2018-09-15T09:59:19.299Z,68.28
2018-09-15T10:01:53.195Z,69.49
2018-09-15T10:04:22.968Z,70.68
2018-09-15T10:06:51.580Z,67.93
2018-09-15T10:09:20.094Z,67.84
2018-09-15T10:11:48.713Z,66.45
2018-09-15T10:14:17.387Z,67.15
2018-09-15T10:16:45.897Z,67.10
2018-09-15T10:19:14.580Z,65.89
2018-09-15T10:21:43.332Z,65.36
2018-09-15T10:24:11.861Z,66.19
2018-09-15T10:26:40.467Z,66.72
2018-09-15T10:29:08.951Z,64.63
2018-09-15T10:31:37.508Z,60.89
2018-09-15T10:34:06.085Z,61.56
2018-09-15T10:36:34.643Z,59.79
2018-09-15T10:39:03.536Z,60.16
2018-09-15T10:41:32.073Z,59.07
2018-09-15T10:44:00.646Z,56.79
2018-09-15T10:46:29.179Z,55.81
2018-09-15T10:48:57.895Z,55.83
2018-09-15T10:51:26.437Z,56.73
2018-09-15T10:53:54.932Z,57.56
2018-09-15T10:56:23.513Z,55.79
2018-09-15T10:58:52.191Z,56.54
2018-09-15T11:01:20.776Z,59.42
2018-09-15T11:03:49.338Z,56.25
2018-09-15T11:06:17.846Z,56.91
2018-09-15T11:08:46.361Z,58.20
2018-09-15T11:11:14.908Z,58.02
2018-09-15T11:13:43.517Z,58.00
2018-09-15T11:16:12.009Z,57.23
2018-09-15T11:18:40.550Z,57.75
2018-09-15T11:21:09.079Z,58.00
2018-09-15T11:23:37.623Z,56.22
2018-09-15T11:26:06.314Z,55.38
2018-09-15T11:28:34.857Z,55.60
2018-09-15T11:31:03.346Z,54.87
2018-09-15T11:33:32.074Z,54.26
2018-09-15T11:36:00.576Z,53.26
2018-09-15T11:38:29.085Z,53.12
2018-09-15T11:40:57.629Z,51.75
2018-09-15T11:43:26.157Z,54.48
2018-09-15T11:45:54.789Z,52.99
2018-09-15T11:48:23.386Z,52.04
2018-09-15T11:50:51.968Z,54.03
2018-09-15T11:53:20.526Z,53.59
2018-09-15T11:55:48.995Z,54.49
2018-09-15T11:58:17.471Z,54.77
2018-09-15T12:00:59.582Z,54.29
2018-09-15T12:03:29.720Z,55.35
2018-09-15T12:05:58.255Z,55.23
2018-09-15T12:08:26.797Z,54.55
2018-09-15T12:10:55.341Z,52.82
2018-09-15T12:13:23.924Z,53.85
2018-09-15T12:15:52.408Z,47.16
2018-09-15T12:18:20.948Z,47.33
2018-09-15T12:20:49.461Z,47.23
2018-09-15T12:23:18.025Z,47.27
2018-09-15T12:25:46.619Z,46.80
2018-09-15T12:28:15.269Z,46.42
2018-09-15T12:30:43.818Z,44.16
2018-09-15T12:33:12.515Z,42.69
2018-09-15T12:35:41.113Z,44.47
2018-09-15T12:38:09.655Z,42.25
2018-09-15T12:40:38.332Z,44.66
2018-09-15T12:43:07.681Z,43.19
2018-09-15T12:45:36.480Z,42.49
2018-09-15T12:48:05.152Z,44.87
2018-09-15T12:50:33.682Z,41.65
2018-09-15T12:53:02.894Z,44.02
2018-09-15T12:55:31.459Z,44.36
2018-09-15T12:58:00.033Z,42.47
2018-09-15T13:00:28.581Z,44.23
2018-09-15T13:02:57.083Z,47.77
2018-09-15T13:05:25.668Z,48.28
2018-09-15T13:07:54.468Z,49.50
2018-09-15T13:10:23.092Z,47.03
2018-09-15T13:12:51.584Z,46.85
2018-09-15T13:15:20.287Z,46.85
2018-09-15T13:17:48.881Z,47.46
2018-09-15T13:20:17.453Z,47.37
2018-09-15T13:22:46.086Z,47.47
2018-09-15T13:25:14.628Z,48.89
2018-09-15T13:27:43.184Z,49.22
2018-09-15T13:30:11.758Z,50.71
2018-09-15T13:32:40.633Z,51.59
2018-09-15T13:35:09.172Z,50.84
2018-09-15T13:37:37.957Z,51.20
2018-09-15T13:40:06.511Z,51.69
2018-09-15T13:42:35.247Z,51.93
2018-09-15T13:45:04.008Z,50.62
2018-09-15T13:47:32.917Z,50.67
2018-09-15T13:50:01.443Z,51.01
2018-09-15T13:52:29.995Z,51.96
2018-09-15T13:54:58.601Z,49.55
2018-09-15T13:57:27.159Z,48.66
2018-09-15T13:59:55.765Z,48.74
2018-09-15T14:02:24.275Z,47.72
2018-09-15T14:04:52.893Z,47.05
2018-09-15T14:07:21.461Z,47.68
2018-09-15T14:09:49.951Z,47.31
2018-09-15T14:12:18.556Z,48.29
2018-09-15T14:14:47.427Z,48.03
2018-09-15T14:17:16.270Z,49.04
2018-09-15T14:19:45.103Z,49.38
2018-09-15T14:22:14.041Z,50.07
2018-09-15T14:24:42.907Z,50.05
2018-09-15T14:27:11.866Z,49.48
2018-09-15T14:29:41.353Z,50.22
2018-09-15T14:32:10.492Z,50.35
2018-09-15T14:34:39.615Z,50.67
2018-09-15T14:37:08.149Z,49.79
2018-09-15T14:39:36.987Z,49.98
2018-09-15T14:42:05.632Z,50.50
2018-09-15T14:44:34.579Z,49.94
2018-09-15T14:47:03.511Z,50.62
2018-09-15T14:49:32.186Z,50.88
2018-09-15T14:52:00.804Z,50.84
2018-09-15T14:54:29.365Z,51.54
2018-09-15T14:56:58.077Z,50.78
2018-09-15T14:59:26.609Z,50.30
2018-09-15T15:01:55.317Z,50.63
2018-09-15T15:04:23.809Z,49.74
2018-09-15T15:06:52.337Z,50.17
2018-09-15T15:09:20.958Z,51.38
2018-09-15T15:11:49.437Z,49.51
2018-09-15T15:14:18.278Z,50.42
2018-09-15T15:16:46.863Z,49.51
2018-09-15T15:19:15.513Z,49.71
2018-09-15T15:21:44.116Z,49.00
2018-09-15T15:24:12.666Z,49.54
2018-09-15T15:26:41.321Z,48.80
2018-09-15T15:29:09.796Z,49.39
2018-09-15T15:31:38.397Z,49.20
2018-09-15T15:34:06.880Z,49.50
2018-09-15T15:36:35.439Z,50.35
2018-09-15T15:39:05.155Z,51.34
2018-09-15T15:41:33.965Z,51.51
2018-09-15T15:44:02.508Z,49.70
2018-09-15T15:46:31.494Z,50.88
2018-09-15T15:49:00.139Z,50.90
2018-09-15T15:51:28.801Z,49.73
2018-09-15T15:53:57.306Z,48.69
2018-09-15T15:56:25.897Z,48.29
2018-09-15T15:58:55.090Z,48.93
2018-09-15T16:01:23.590Z,49.57
2018-09-15T16:03:52.680Z,50.18
2018-09-15T16:06:21.489Z,51.27
2018-09-15T16:08:51.118Z,52.48
2018-09-15T16:11:20.028Z,51.29
2018-09-15T16:13:48.845Z,49.05
2018-09-15T16:16:17.492Z,45.15
2018-09-15T16:18:46.001Z,44.34
2018-09-15T16:21:14.576Z,41.92
2018-09-15T16:23:43.419Z,41.84
2018-09-15T16:26:11.920Z,45.97
2018-09-15T16:28:40.727Z,46.00
2018-09-15T16:31:09.244Z,48.55
2018-09-15T16:33:37.750Z,46.27
2018-09-15T16:36:06.463Z,43.88
2018-09-15T16:38:35.077Z,44.20
2018-09-15T16:41:03.663Z,44.08
2018-09-15T16:43:32.221Z,42.86
2018-09-15T16:46:00.792Z,47.98
2018-09-15T16:48:29.363Z,47.02
2018-09-15T16:50:57.893Z,47.94
2018-09-15T16:53:26.490Z,47.20
2018-09-15T16:55:55.226Z,48.21
2018-09-15T16:58:23.728Z,49.13
2018-09-15T17:00:52.281Z,49.96
2018-09-15T17:03:20.983Z,49.97
2018-09-15T17:05:49.532Z,51.60
2018-09-15T17:08:18.330Z,51.61
2018-09-15T17:10:46.848Z,51.64
2018-09-15T17:13:15.329Z,50.66
2018-09-15T17:15:43.994Z,52.48
2018-09-15T17:18:12.545Z,52.55
2018-09-15T17:20:41.126Z,54.85
2018-09-15T17:23:09.772Z,54.40
2018-09-15T17:25:38.422Z,54.38
2018-09-15T17:28:07.002Z,54.98
2018-09-15T17:30:36.538Z,55.62
2018-09-15T17:33:05.093Z,57.05
2018-09-15T17:35:33.736Z,56.87
2018-09-15T17:38:02.241Z,56.81
2018-09-15T17:40:30.813Z,57.81
2018-09-15T17:42:59.365Z,58.97
2018-09-15T17:45:28.024Z,58.86
2018-09-15T17:47:56.567Z,59.76
2018-09-15T17:50:25.319Z,58.82
2018-09-15T17:52:54.109Z,59.72
2018-09-15T17:55:23.742Z,60.29
2018-09-15T17:57:52.258Z,60.37
2018-09-15T18:00:20.806Z,59.85
2018-09-15T18:02:49.352Z,60.09
2018-09-15T18:05:17.868Z,60.24
2018-09-15T18:07:46.414Z,60.69
2018-09-15T18:10:17.533Z,61.94
2018-09-15T18:12:46.067Z,61.92
2018-09-15T18:15:14.520Z,62.03
2018-09-15T18:17:43.014Z,63.16
2018-09-15T18:20:11.541Z,62.73
2018-09-15T18:22:40.143Z,62.67
2018-09-15T18:25:08.942Z,62.50
2018-09-15T18:27:37.742Z,62.90
2018-09-15T18:30:06.989Z,64.50
2018-09-15T18:32:35.460Z,63.65
2018-09-15T18:35:03.999Z,63.13
2018-09-15T18:37:32.485Z,65.11
2018-09-15T18:40:01.082Z,64.43
2018-09-15T18:42:29.770Z,64.99
2018-09-15T18:44:58.224Z,66.10
2018-09-15T18:47:26.777Z,66.34
2018-09-15T18:49:55.313Z,66.12
2018-09-15T18:52:23.837Z,65.90
2018-09-15T18:54:52.496Z,66.20
2018-09-15T18:57:21.170Z,66.13
2018-09-15T18:59:49.767Z,65.62
2018-09-15T19:02:18.289Z,66.00
2018-09-15T19:04:46.826Z,66.94
2018-09-15T19:07:15.310Z,67.17
2018-09-15T19:09:43.859Z,67.30
2018-09-15T19:12:12.364Z,68.48
2018-09-15T19:14:40.902Z,69.48
2018-09-15T19:17:09.408Z,68.54
2018-09-15T19:19:37.929Z,69.44
2018-09-15T19:22:06.631Z,69.99
2018-09-15T19:24:35.097Z,69.92
2018-09-15T19:27:03.626Z,70.01
2018-09-15T19:29:32.164Z,70.50
2018-09-15T19:32:00.735Z,70.31
2018-09-15T19:34:29.245Z,70.26
2018-09-15T19:36:57.768Z,70.44
2018-09-15T19:39:26.285Z,70.91
2018-09-15T19:41:54.925Z,71.73
2018-09-15T19:44:23.476Z,71.87
2018-09-15T19:46:52.094Z,72.65
2018-09-15T19:49:20.658Z,72.84
2018-09-15T19:51:49.233Z,72.44
2018-09-15T19:54:17.773Z,72.62
2018-09-15T19:56:46.363Z,74.06
2018-09-15T19:59:15.114Z,74.57
2018-09-15T20:01:43.589Z,75.18
2018-09-15T20:04:12.140Z,75.40
2018-09-15T20:06:40.701Z,75.90
2018-09-15T20:09:10.189Z,77.00
2018-09-15T20:11:38.708Z,77.35
2018-09-15T20:14:07.802Z,76.97
2018-09-15T20:16:35.093Z,77.02
2018-09-15T20:19:02.438Z,77.92
2018-09-15T20:21:29.731Z,77.41
2018-09-15T20:23:58.245Z,78.34
2018-09-15T20:26:26.754Z,78.92
2018-09-15T20:28:55.318Z,79.42
2018-09-15T20:31:23.818Z,79.84
2018-09-15T20:33:52.371Z,79.82
2018-09-15T20:36:21.005Z,78.97
2018-09-15T20:38:49.602Z,79.74
2018-09-15T20:41:18.094Z,79.95
2018-09-15T20:43:46.667Z,80.26
2018-09-15T20:46:15.325Z,80.46
2018-09-15T20:48:44.035Z,80.77
2018-09-15T20:51:12.694Z,80.71
2018-09-15T20:53:41.383Z,81.08
2018-09-15T20:56:10.435Z,81.56
2018-09-15T20:58:39.129Z,81.68
2018-09-15T21:01:07.810Z,82.94
2018-09-15T21:03:36.431Z,82.05
2018-09-15T21:06:04.976Z,81.86
2018-09-15T21:08:33.504Z,82.33
2018-09-15T21:11:02.116Z,82.50
2018-09-15T21:13:30.651Z,82.87
2018-09-15T21:15:59.457Z,82.90
2018-09-15T21:18:27.886Z,83.28
2018-09-15T21:20:56.539Z,82.97
2018-09-15T21:23:25.257Z,83.86
2018-09-15T21:25:53.863Z,83.74
2018-09-15T21:28:22.373Z,84.71
2018-09-15T21:30:51.038Z,83.83
2018-09-15T21:33:21.117Z,84.58
2018-09-15T21:35:49.741Z,84.13
2018-09-15T21:38:18.284Z,84.36
2018-09-15T21:40:46.868Z,84.34
2018-09-15T21:43:15.361Z,84.10
2018-09-15T21:45:43.931Z,84.46
2018-09-15T21:48:13.334Z,85.12
2018-09-15T21:50:41.877Z,85.25
2018-09-15T21:53:10.393Z,85.48
2018-09-15T21:55:38.943Z,85.94
2018-09-15T21:58:07.692Z,85.36
2018-09-15T22:00:36.241Z,85.81
2018-09-15T22:03:04.750Z,85.59
2018-09-15T22:05:33.312Z,85.83
2018-09-15T22:08:01.828Z,86.02
2018-09-15T22:10:30.401Z,86.02
2018-09-15T22:12:58.898Z,86.01
2018-09-15T22:15:28.178Z,86.50
2018-09-15T22:17:58.373Z,85.36
2018-09-15T22:20:27.172Z,85.81
2018-09-15T22:22:55.651Z,85.48
2018-09-15T22:25:24.174Z,85.94
2018-09-15T22:27:52.671Z,85.80
2018-09-15T22:30:21.207Z,85.82
2018-09-15T22:32:49.685Z,85.14
2018-09-15T22:35:18.277Z,86.09
2018-09-15T22:37:46.788Z,86.27
2018-09-15T22:40:18.381Z,86.37
2018-09-15T22:42:46.922Z,86.09
2018-09-15T22:45:15.421Z,85.90
2018-09-15T22:47:44.220Z,86.51
2018-09-15T22:50:12.731Z,86.52
2018-09-15T22:52:41.286Z,86.34
2018-09-15T22:55:09.794Z,86.49
2018-09-15T22:57:38.324Z,85.76
2018-09-15T23:00:06.933Z,86.33
2018-09-15T23:02:35.595Z,86.50
2018-09-15T23:05:04.164Z,86.43
2018-09-15T23:07:32.699Z,87.21
2018-09-15T23:10:01.347Z,87.56
2018-09-15T23:12:29.896Z,87.28
2018-09-15T23:14:58.375Z,87.42
2018-09-15T23:17:26.892Z,87.11
2018-09-15T23:19:55.404Z,86.35
2018-09-15T23:22:24.391Z,86.46
2018-09-15T23:24:53.052Z,86.68
2018-09-15T23:27:21.547Z,86.31
2018-09-15T23:29:50.059Z,87.11
2018-09-15T23:32:18.563Z,87.09
2018-09-15T23:34:47.076Z,87.32
2018-09-15T23:37:15.591Z,87.12
2018-09-15T23:39:44.189Z,87.60
2018-09-15T23:42:12.673Z,87.57
2018-09-15T23:44:41.228Z,88.43
2018-09-15T23:47:09.738Z,87.88
2018-09-15T23:49:38.250Z,88.24
2018-09-15T23:52:06.832Z,87.55
2018-09-15T23:54:35.352Z,88.17
2018-09-15T23:57:03.898Z,87.50
2018-09-15T23:59:32.415Z,87.52
